Pierre, South Dakota
Current Conditions -  °F | °C
As of 8:53 PM on Friday 31 Oct 2014 (Local Time) from KPIR Reporting Station
Clear Clear  
Wind Chill: -3°   Ceiling: Unl
Heat Index:   Visibility: 10mi
Dew Point: -9°   Wind: 15mph
Humidity: 43%   Direction: 120°ESE
Pressure: 30.22"   Gusts: NA
Location:  44.37°N, 100.35°W
Report Text: KPIR 010153Z AUTO 12013KT 10SM CLR 02/M09 A3022 RMK AO2 PK WND 13027/0055 SLP256 T00221094
Loading
Personal Weather Stations






























Interactive Weather Map
Tropical Storm Tracking
New forecast layout! Learn more

10-Day Weather Forecast

Advertisements
Track Severe Weather on mobile